sensor_id;sensor_type;location;lat;lon;timestamp;P1;durP1;ratioP1;P2;durP2;ratioP2
70205;SDS011;57593;55.896;37.396;2022-11-27T00:00:26;24.92;;;14.07;;
70205;SDS011;57593;55.896;37.396;2022-11-27T00:00:57;27.90;;;14.98;;
70205;SDS011;57593;55.896;37.396;2022-11-27T00:01:28;22.44;;;13.74;;
70205;SDS011;57593;55.896;37.396;2022-11-27T00:02:04;22.98;;;14.56;;
70205;SDS011;57593;55.896;37.396;2022-11-27T00:02:35;27.58;;;14.25;;
70205;SDS011;57593;55.896;37.396;2022-11-27T00:03:06;27.48;;;14.10;;
70205;SDS011;57593;55.896;37.396;2022-11-27T00:03:37;27.73;;;15.25;;
70205;SDS011;57593;55.896;37.396;2022-11-27T00:04:09;23.46;;;13.80;;
70205;SDS011;57593;55.896;37.396;2022-11-27T00:04:40;25.90;;;14.46;;
70205;SDS011;57593;55.896;37.396;2022-11-27T00:05:11;27.30;;;15.63;;
70205;SDS011;57593;55.896;37.396;2022-11-27T00:05:49;27.08;;;13.85;;
70205;SDS011;57593;55.896;37.396;2022-11-27T00:06:27;25.44;;;14.34;;
70205;SDS011;57593;55.896;37.396;2022-11-27T00:06:59;24.48;;;14.00;;
70205;SDS011;57593;55.896;37.396;2022-11-27T00:07:29;25.25;;;14.45;;
70205;SDS011;57593;55.896;37.396;2022-11-27T00:08:00;23.58;;;14.32;;
70205;SDS011;57593;55.896;37.396;2022-11-27T00:08:31;27.45;;;14.23;;
70205;SDS011;57593;55.896;37.396;2022-11-27T00:09:03;25.27;;;13.43;;
70205;SDS011;57593;55.896;37.396;2022-11-27T00:09:35;23.80;;;13.60;;
70205;SDS011;57593;55.896;37.396;2022-11-27T00:10:06;24.10;;;13.60;;
70205;SDS011;57593;55.896;37.396;2022-11-27T00:10:37;24.16;;;13.28;;
70205;SDS011;57593;55.896;37.396;2022-11-27T00:11:09;27.35;;;15.05;;
70205;SDS011;57593;55.896;37.396;2022-11-27T00:11:41;25.50;;;14.52;;
70205;SDS011;57593;55.896;37.396;2022-11-27T00:12:13;25.50;;;14.36;;
70205;SDS011;57593;55.896;37.396;2022-11-27T00:12:44;25.30;;;14.38;;
70205;SDS011;57593;55.896;37.396;2022-11-27T00:13:14;24.10;;;13.65;;
70205;SDS011;57593;55.896;37.396;2022-11-27T00:13:46;24.52;;;13.98;;
70205;SDS011;57593;55.896;37.396;2022-11-27T00:14:17;27.22;;;14.34;;
70205;SDS011;57593;55.896;37.396;2022-11-27T00:14:48;24.60;;;13.40;;
70205;SDS011;57593;55.896;37.396;2022-11-27T00:15:19;22.48;;;14.12;;
70205;SDS011;57593;55.896;37.396;2022-11-27T00:15:49;25.42;;;13.18;;
70205;SDS011;57593;55.896;37.396;2022-11-27T00:16:21;23.08;;;13.70;;
70205;SDS011;57593;55.896;37.396;2022-11-27T00:16:53;25.52;;;13.44;;
70205;SDS011;57593;55.896;37.396;2022-11-27T00:17:23;22.80;;;13.75;;
70205;SDS011;57593;55.896;37.396;2022-11-27T00:17:54;22.08;;;13.77;;
70205;SDS011;57593;55.896;37.396;2022-11-27T00:18:25;20.45;;;13.07;;
70205;SDS011;57593;55.896;37.396;2022-11-27T00:18:55;22.95;;;13.38;;
70205;SDS011;57593;55.896;37.396;2022-11-27T00:19:26;20.70;;;12.65;;
70205;SDS011;57593;55.896;37.396;2022-11-27T00:19:57;23.23;;;12.80;;
70205;SDS011;57593;55.896;37.396;2022-11-27T00:20:27;24.95;;;14.25;;
70205;SDS011;57593;55.896;37.396;2022-11-27T00:21:05;21.30;;;12.75;;
70205;SDS011;57593;55.896;37.396;2022-11-27T00:21:46;24.60;;;13.82;;
70205;SDS011;57593;55.896;37.396;2022-11-27T00:22:17;22.10;;;13.18;;
70205;SDS011;57593;55.896;37.396;2022-11-27T00:22:47;21.92;;;13.13;;
70205;SDS011;57593;55.896;37.396;2022-11-27T00:23:18;24.17;;;12.75;;
70205;SDS011;57593;55.896;37.396;2022-11-27T00:23:49;22.88;;;14.07;;
70205;SDS011;57593;55.896;37.396;2022-11-27T00:24:21;22.74;;;13.32;;
70205;SDS011;57593;55.896;37.396;2022-11-27T00:24:51;24.05;;;13.85;;
70205;SDS011;57593;55.896;37.396;2022-11-27T00:25:22;25.83;;;14.27;;
70205;SDS011;57593;55.896;37.396;2022-11-27T00:25:53;21.82;;;12.92;;
70205;SDS011;57593;55.896;37.396;2022-11-27T00:26:24;23.10;;;13.75;;
70205;SDS011;57593;55.896;37.396;2022-11-27T00:26:57;25.06;;;13.06;;
70205;SDS011;57593;55.896;37.396;2022-11-27T00:27:28;22.65;;;12.75;;
70205;SDS011;57593;55.896;37.396;2022-11-27T00:27:59;23.38;;;13.00;;
70205;SDS011;57593;55.896;37.396;2022-11-27T00:28:29;22.17;;;12.50;;
70205;SDS011;57593;55.896;37.396;2022-11-27T00:29:00;20.40;;;12.60;;
70205;SDS011;57593;55.896;37.396;2022-11-27T00:29:31;21.80;;;13.20;;
70205;SDS011;57593;55.896;37.396;2022-11-27T00:30:02;21.88;;;13.23;;
70205;SDS011;57593;55.896;37.396;2022-11-27T00:30:34;21.80;;;13.00;;
70205;SDS011;57593;55.896;37.396;2022-11-27T00:31:06;23.08;;;12.93;;
70205;SDS011;57593;55.896;37.396;2022-11-27T00:31:41;21.76;;;13.38;;
70205;SDS011;57593;55.896;37.396;2022-11-27T00:32:12;23.15;;;12.60;;
70205;SDS011;57593;55.896;37.396;2022-11-27T00:32:42;20.95;;;12.52;;
70205;SDS011;57593;55.896;37.396;2022-11-27T00:33:13;21.52;;;12.75;;
70205;SDS011;57593;55.896;37.396;2022-11-27T00:33:43;21.45;;;13.13;;
70205;SDS011;57593;55.896;37.396;2022-11-27T00:34:14;26.56;;;13.42;;
70205;SDS011;57593;55.896;37.396;2022-11-27T00:34:45;21.27;;;13.07;;
70205;SDS011;57593;55.896;37.396;2022-11-27T00:35:16;21.75;;;11.80;;
70205;SDS011;57593;55.896;37.396;2022-11-27T00:35:46;23.60;;;13.23;;
70205;SDS011;57593;55.896;37.396;2022-11-27T00:36:17;21.27;;;12.43;;
70205;SDS011;57593;55.896;37.396;2022-11-27T00:36:48;23.17;;;12.85;;
70205;SDS011;57593;55.896;37.396;2022-11-27T00:37:18;18.88;;;11.80;;
70205;SDS011;57593;55.896;37.396;2022-11-27T00:37:49;19.00;;;12.50;;
70205;SDS011;57593;55.896;37.396;2022-11-27T00:38:19;21.95;;;12.77;;
70205;SDS011;57593;55.896;37.396;2022-11-27T00:38:50;21.55;;;12.02;;
70205;SDS011;57593;55.896;37.396;2022-11-27T00:39:21;20.14;;;12.14;;
70205;SDS011;57593;55.896;37.396;2022-11-27T00:39:52;20.83;;;12.60;;
70205;SDS011;57593;55.896;37.396;2022-11-27T00:40:23;18.13;;;11.93;;
70205;SDS011;57593;55.896;37.396;2022-11-27T00:40:57;21.45;;;12.73;;
70205;SDS011;57593;55.896;37.396;2022-11-27T00:41:29;21.16;;;12.42;;
70205;SDS011;57593;55.896;37.396;2022-11-27T00:42:00;21.68;;;12.24;;
70205;SDS011;57593;55.896;37.396;2022-11-27T00:42:30;16.98;;;10.60;;
70205;SDS011;57593;55.896;37.396;2022-11-27T00:43:01;18.83;;;11.57;;
70205;SDS011;57593;55.896;37.396;2022-11-27T00:43:32;21.63;;;13.00;;
70205;SDS011;57593;55.896;37.396;2022-11-27T00:44:03;20.74;;;12.04;;
70205;SDS011;57593;55.896;37.396;2022-11-27T00:44:34;22.05;;;12.65;;
70205;SDS011;57593;55.896;37.396;2022-11-27T00:45:05;21.75;;;11.80;;
70205;SDS011;57593;55.896;37.396;2022-11-27T00:45:36;20.22;;;11.80;;
70205;SDS011;57593;55.896;37.396;2022-11-27T00:46:07;20.23;;;11.93;;
70205;SDS011;57593;55.896;37.396;2022-11-27T00:46:38;21.77;;;13.75;;
70205;SDS011;57593;55.896;37.396;2022-11-27T00:47:10;20.64;;;11.50;;
70205;SDS011;57593;55.896;37.396;2022-11-27T00:47:41;22.02;;;12.07;;
70205;SDS011;57593;55.896;37.396;2022-11-27T00:48:11;21.10;;;11.85;;
70205;SDS011;57593;55.896;37.396;2022-11-27T00:48:42;19.98;;;11.60;;
70205;SDS011;57593;55.896;37.396;2022-11-27T00:49:13;21.27;;;11.45;;
70205;SDS011;57593;55.896;37.396;2022-11-27T00:49:44;19.35;;;11.50;;
70205;SDS011;57593;55.896;37.396;2022-11-27T00:50:15;19.42;;;12.12;;
70205;SDS011;57593;55.896;37.396;2022-11-27T00:50:46;18.52;;;11.48;;
70205;SDS011;57593;55.896;37.396;2022-11-27T00:51:17;20.52;;;11.75;;
70205;SDS011;57593;55.896;37.396;2022-11-27T00:51:50;18.94;;;11.44;;
70205;SDS011;57593;55.896;37.396;2022-11-27T00:52:20;19.30;;;11.18;;
70205;SDS011;57593;55.896;37.396;2022-11-27T00:52:51;21.52;;;12.65;;
70205;SDS011;57593;55.896;37.396;2022-11-27T00:53:21;22.55;;;12.10;;
70205;SDS011;57593;55.896;37.396;2022-11-27T00:53:52;20.08;;;12.13;;
70205;SDS011;57593;55.896;37.396;2022-11-27T00:54:24;20.06;;;11.76;;
70205;SDS011;57593;55.896;37.396;2022-11-27T00:54:54;19.13;;;11.82;;
70205;SDS011;57593;55.896;37.396;2022-11-27T00:55:25;20.95;;;11.73;;
70205;SDS011;57593;55.896;37.396;2022-11-27T00:55:56;19.27;;;11.75;;
70205;SDS011;57593;55.896;37.396;2022-11-27T00:56:31;21.16;;;12.50;;
70205;SDS011;57593;55.896;37.396;2022-11-27T00:57:06;21.42;;;11.98;;
70205;SDS011;57593;55.896;37.396;2022-11-27T00:57:36;18.25;;;10.65;;
70205;SDS011;57593;55.896;37.396;2022-11-27T00:58:07;22.37;;;12.43;;
70205;SDS011;57593;55.896;37.396;2022-11-27T00:58:38;21.52;;;12.30;;
70205;SDS011;57593;55.896;37.396;2022-11-27T00:59:08;22.08;;;12.13;;
70205;SDS011;57593;55.896;37.396;2022-11-27T00:59:40;25.00;;;11.92;;
70205;SDS011;57593;55.896;37.396;2022-11-27T01:00:10;22.27;;;11.38;;
70205;SDS011;57593;55.896;37.396;2022-11-27T01:00:41;19.12;;;11.74;;
70205;SDS011;57593;55.896;37.396;2022-11-27T01:01:14;22.33;;;11.77;;
70205;SDS011;57593;55.896;37.396;2022-11-27T01:01:50;19.84;;;11.78;;
70205;SDS011;57593;55.896;37.396;2022-11-27T01:02:21;22.65;;;11.82;;
70205;SDS011;57593;55.896;37.396;2022-11-27T01:02:52;19.72;;;11.98;;
70205;SDS011;57593;55.896;37.396;2022-11-27T01:03:23;20.70;;;11.93;;
70205;SDS011;57593;55.896;37.396;2022-11-27T01:03:55;17.60;;;10.72;;
70205;SDS011;57593;55.896;37.396;2022-11-27T01:04:29;22.38;;;12.42;;
70205;SDS011;57593;55.896;37.396;2022-11-27T01:04:59;19.67;;;12.00;;
70205;SDS011;57593;55.896;37.396;2022-11-27T01:05:30;19.77;;;11.57;;
70205;SDS011;57593;55.896;37.396;2022-11-27T01:06:04;21.55;;;12.23;;
70205;SDS011;57593;55.896;37.396;2022-11-27T01:06:35;19.24;;;11.50;;
70205;SDS011;57593;55.896;37.396;2022-11-27T01:07:06;20.38;;;11.73;;
70205;SDS011;57593;55.896;37.396;2022-11-27T01:07:37;21.42;;;12.20;;
70205;SDS011;57593;55.896;37.396;2022-11-27T01:08:07;20.83;;;11.80;;
70205;SDS011;57593;55.896;37.396;2022-11-27T01:08:38;21.07;;;11.80;;
70205;SDS011;57593;55.896;37.396;2022-11-27T01:09:10;19.58;;;11.46;;
70205;SDS011;57593;55.896;37.396;2022-11-27T01:09:42;21.02;;;12.18;;
70205;SDS011;57593;55.896;37.396;2022-11-27T01:10:13;19.35;;;11.80;;
70205;SDS011;57593;55.896;37.396;2022-11-27T01:10:50;22.98;;;12.57;;
70205;SDS011;57593;55.896;37.396;2022-11-27T01:11:29;22.22;;;12.10;;
70205;SDS011;57593;55.896;37.396;2022-11-27T01:12:01;18.96;;;11.62;;
70205;SDS011;57593;55.896;37.396;2022-11-27T01:12:31;21.53;;;11.93;;
70205;SDS011;57593;55.896;37.396;2022-11-27T01:13:02;21.20;;;11.75;;
70205;SDS011;57593;55.896;37.396;2022-11-27T01:13:34;19.57;;;11.43;;
70205;SDS011;57593;55.896;37.396;2022-11-27T01:14:07;23.04;;;12.06;;
70205;SDS011;57593;55.896;37.396;2022-11-27T01:14:40;22.63;;;12.18;;
70205;SDS011;57593;55.896;37.396;2022-11-27T01:15:11;21.63;;;12.15;;
70205;SDS011;57593;55.896;37.396;2022-11-27T01:15:42;20.73;;;12.02;;
70205;SDS011;57593;55.896;37.396;2022-11-27T01:16:14;20.88;;;12.04;;
70205;SDS011;57593;55.896;37.396;2022-11-27T01:16:47;21.42;;;11.00;;
70205;SDS011;57593;55.896;37.396;2022-11-27T01:17:18;21.45;;;11.85;;
70205;SDS011;57593;55.896;37.396;2022-11-27T01:17:48;22.88;;;13.07;;
70205;SDS011;57593;55.896;37.396;2022-11-27T01:18:19;20.60;;;11.57;;
70205;SDS011;57593;55.896;37.396;2022-11-27T01:18:50;20.02;;;12.25;;
70205;SDS011;57593;55.896;37.396;2022-11-27T01:19:22;20.88;;;12.14;;
70205;SDS011;57593;55.896;37.396;2022-11-27T01:19:53;23.05;;;12.32;;
70205;SDS011;57593;55.896;37.396;2022-11-27T01:20:24;21.38;;;13.15;;
70205;SDS011;57593;55.896;37.396;2022-11-27T01:20:54;19.88;;;11.65;;
70205;SDS011;57593;55.896;37.396;2022-11-27T01:21:26;19.62;;;12.00;;
70205;SDS011;57593;55.896;37.396;2022-11-27T01:21:58;20.52;;;10.86;;
70205;SDS011;57593;55.896;37.396;2022-11-27T01:22:29;22.48;;;12.15;;
70205;SDS011;57593;55.896;37.396;2022-11-27T01:22:59;22.20;;;12.32;;
70205;SDS011;57593;55.896;37.396;2022-11-27T01:23:30;22.60;;;12.05;;
70205;SDS011;57593;55.896;37.396;2022-11-27T01:24:01;21.23;;;11.60;;
70205;SDS011;57593;55.896;37.396;2022-11-27T01:24:33;19.48;;;11.68;;
70205;SDS011;57593;55.896;37.396;2022-11-27T01:25:04;23.50;;;12.05;;
70205;SDS011;57593;55.896;37.396;2022-11-27T01:25:35;17.02;;;11.12;;
70205;SDS011;57593;55.896;37.396;2022-11-27T01:26:06;21.33;;;11.97;;
70205;SDS011;57593;55.896;37.396;2022-11-27T01:26:39;17.88;;;10.84;;
70205;SDS011;57593;55.896;37.396;2022-11-27T01:27:10;21.02;;;12.18;;
70205;SDS011;57593;55.896;37.396;2022-11-27T01:27:41;21.45;;;11.45;;
70205;SDS011;57593;55.896;37.396;2022-11-27T01:28:11;18.85;;;11.30;;
70205;SDS011;57593;55.896;37.396;2022-11-27T01:28:42;22.08;;;12.65;;
70205;SDS011;57593;55.896;37.396;2022-11-27T01:29:13;19.60;;;11.98;;
70205;SDS011;57593;55.896;37.396;2022-11-27T01:29:44;20.25;;;11.80;;
70205;SDS011;57593;55.896;37.396;2022-11-27T01:30:15;17.93;;;11.37;;
70205;SDS011;57593;55.896;37.396;2022-11-27T01:30:45;20.95;;;11.98;;
70205;SDS011;57593;55.896;37.396;2022-11-27T01:31:17;18.77;;;10.57;;
70205;SDS011;57593;55.896;37.396;2022-11-27T01:31:49;19.58;;;12.28;;
70205;SDS011;57593;55.896;37.396;2022-11-27T01:32:20;21.35;;;11.32;;
70205;SDS011;57593;55.896;37.396;2022-11-27T01:32:51;23.00;;;12.38;;
70205;SDS011;57593;55.896;37.396;2022-11-27T01:33:21;22.00;;;11.60;;
70205;SDS011;57593;55.896;37.396;2022-11-27T01:33:53;25.27;;;12.38;;
70205;SDS011;57593;55.896;37.396;2022-11-27T01:34:26;22.26;;;12.54;;
70205;SDS011;57593;55.896;37.396;2022-11-27T01:34:56;21.98;;;12.02;;
70205;SDS011;57593;55.896;37.396;2022-11-27T01:35:27;21.55;;;11.93;;
70205;SDS011;57593;55.896;37.396;2022-11-27T01:35:59;20.92;;;12.48;;
70205;SDS011;57593;55.896;37.396;2022-11-27T01:36:32;18.92;;;12.06;;
70205;SDS011;57593;55.896;37.396;2022-11-27T01:37:03;22.30;;;12.30;;
70205;SDS011;57593;55.896;37.396;2022-11-27T01:37:34;21.05;;;12.10;;
70205;SDS011;57593;55.896;37.396;2022-11-27T01:38:04;21.60;;;12.45;;
70205;SDS011;57593;55.896;37.396;2022-11-27T01:38:35;23.27;;;12.40;;
70205;SDS011;57593;55.896;37.396;2022-11-27T01:39:06;20.48;;;11.32;;
70205;SDS011;57593;55.896;37.396;2022-11-27T01:39:36;18.48;;;10.75;;
70205;SDS011;57593;55.896;37.396;2022-11-27T01:40:07;21.95;;;12.20;;
70205;SDS011;57593;55.896;37.396;2022-11-27T01:40:38;20.10;;;11.23;;
70205;SDS011;57593;55.896;37.396;2022-11-27T01:41:12;22.05;;;12.18;;
70205;SDS011;57593;55.896;37.396;2022-11-27T01:41:46;18.94;;;11.18;;
70205;SDS011;57593;55.896;37.396;2022-11-27T01:42:17;18.40;;;11.18;;
70205;SDS011;57593;55.896;37.396;2022-11-27T01:42:48;18.05;;;11.88;;
70205;SDS011;57593;55.896;37.396;2022-11-27T01:43:34;20.05;;;11.60;;
70205;SDS011;57593;55.896;37.396;2022-11-27T01:44:53;20.60;;;10.92;;
70205;SDS011;57593;55.896;37.396;2022-11-27T01:45:24;20.20;;;11.26;;
70205;SDS011;57593;55.896;37.396;2022-11-27T01:45:55;20.05;;;11.02;;
70205;SDS011;57593;55.896;37.396;2022-11-27T01:46:36;18.85;;;11.02;;
70205;SDS011;57593;55.896;37.396;2022-11-27T01:47:12;19.66;;;11.02;;
70205;SDS011;57593;55.896;37.396;2022-11-27T01:47:47;21.50;;;11.40;;
70205;SDS011;57593;55.896;37.396;2022-11-27T01:48:21;22.28;;;12.18;;
70205;SDS011;57593;55.896;37.396;2022-11-27T01:48:53;18.88;;;11.32;;
70205;SDS011;57593;55.896;37.396;2022-11-27T01:50:13;20.80;;;11.68;;
70205;SDS011;57593;55.896;37.396;2022-11-27T01:50:56;19.42;;;10.20;;
70205;SDS011;57593;55.896;37.396;2022-11-27T01:51:26;18.83;;;11.18;;
70205;SDS011;57593;55.896;37.396;2022-11-27T01:51:59;21.98;;;11.78;;
70205;SDS011;57593;55.896;37.396;2022-11-27T01:52:33;20.96;;;11.64;;
70205;SDS011;57593;55.896;37.396;2022-11-27T01:53:11;20.04;;;11.72;;
70205;SDS011;57593;55.896;37.396;2022-11-27T01:53:46;19.76;;;10.92;;
70205;SDS011;57593;55.896;37.396;2022-11-27T01:54:18;22.04;;;12.54;;
70205;SDS011;57593;55.896;37.396;2022-11-27T01:55:34;20.02;;;11.06;;
70205;SDS011;57593;55.896;37.396;2022-11-27T01:56:07;18.24;;;11.40;;
70205;SDS011;57593;55.896;37.396;2022-11-27T01:56:39;20.12;;;11.08;;
70205;SDS011;57593;55.896;37.396;2022-11-27T01:57:15;22.06;;;12.48;;
70205;SDS011;57593;55.896;37.396;2022-11-27T01:57:52;23.77;;;12.70;;
70205;SDS011;57593;55.896;37.396;2022-11-27T01:58:28;20.17;;;11.70;;
70205;SDS011;57593;55.896;37.396;2022-11-27T01:59:00;18.94;;;11.44;;
70205;SDS011;57593;55.896;37.396;2022-11-27T01:59:32;22.82;;;12.22;;
70205;SDS011;57593;55.896;37.396;2022-11-27T02:00:05;21.40;;;11.07;;
70205;SDS011;57593;55.896;37.396;2022-11-27T02:00:42;21.38;;;11.44;;
70205;SDS011;57593;55.896;37.396;2022-11-27T02:01:13;20.98;;;11.75;;
70205;SDS011;57593;55.896;37.396;2022-11-27T02:01:43;20.48;;;11.43;;
70205;SDS011;57593;55.896;37.396;2022-11-27T02:02:14;22.65;;;12.77;;
70205;SDS011;57593;55.896;37.396;2022-11-27T02:02:45;22.98;;;12.50;;
70205;SDS011;57593;55.896;37.396;2022-11-27T02:03:16;22.50;;;11.90;;
70205;SDS011;57593;55.896;37.396;2022-11-27T02:03:47;22.92;;;12.82;;
70205;SDS011;57593;55.896;37.396;2022-11-27T02:04:18;22.27;;;12.55;;
70205;SDS011;57593;55.896;37.396;2022-11-27T02:04:49;20.35;;;12.65;;
70205;SDS011;57593;55.896;37.396;2022-11-27T02:05:21;21.23;;;11.75;;
70205;SDS011;57593;55.896;37.396;2022-11-27T02:05:53;23.50;;;12.68;;
70205;SDS011;57593;55.896;37.396;2022-11-27T02:06:24;22.38;;;11.98;;
70205;SDS011;57593;55.896;37.396;2022-11-27T02:06:56;21.77;;;11.90;;
70205;SDS011;57593;55.896;37.396;2022-11-27T02:07:28;23.00;;;12.94;;
70205;SDS011;57593;55.896;37.396;2022-11-27T02:08:01;23.33;;;12.30;;
70205;SDS011;57593;55.896;37.396;2022-11-27T02:08:34;19.78;;;11.72;;
70205;SDS011;57593;55.896;37.396;2022-11-27T02:09:05;20.48;;;11.65;;
70205;SDS011;57593;55.896;37.396;2022-11-27T02:09:36;20.52;;;11.73;;
70205;SDS011;57593;55.896;37.396;2022-11-27T02:10:07;22.50;;;12.23;;
70205;SDS011;57593;55.896;37.396;2022-11-27T02:13:17;22.64;;;11.10;;
70205;SDS011;57593;55.896;37.396;2022-11-27T02:17:26;23.50;;;11.52;;
70205;SDS011;57593;55.896;37.396;2022-11-27T02:19:15;21.83;;;11.38;;
70205;SDS011;57593;55.896;37.396;2022-11-27T02:21:28;20.30;;;10.48;;
70205;SDS011;57593;55.896;37.396;2022-11-27T02:28:30;20.00;;;11.38;;
70205;SDS011;57593;55.896;37.396;2022-11-27T02:29:12;18.94;;;9.82;;
70205;SDS011;57593;55.896;37.396;2022-11-27T02:29:47;21.74;;;10.94;;
70205;SDS011;57593;55.896;37.396;2022-11-27T02:30:24;21.55;;;11.30;;
70205;SDS011;57593;55.896;37.396;2022-11-27T02:31:30;20.80;;;10.90;;
70205;SDS011;57593;55.896;37.396;2022-11-27T02:32:01;19.50;;;10.18;;
70205;SDS011;57593;55.896;37.396;2022-11-27T02:33:00;19.30;;;11.45;;
70205;SDS011;57593;55.896;37.396;2022-11-27T02:33:33;23.32;;;11.76;;
70205;SDS011;57593;55.896;37.396;2022-11-27T02:34:21;24.52;;;11.10;;
70205;SDS011;57593;55.896;37.396;2022-11-27T02:35:03;23.17;;;10.85;;
70205;SDS011;57593;55.896;37.396;2022-11-27T02:35:40;22.23;;;12.50;;
70205;SDS011;57593;55.896;37.396;2022-11-27T02:36:33;22.32;;;11.40;;
70205;SDS011;57593;55.896;37.396;2022-11-27T02:37:27;18.30;;;10.82;;
70205;SDS011;57593;55.896;37.396;2022-11-27T02:38:58;21.55;;;11.02;;
70205;SDS011;57593;55.896;37.396;2022-11-27T02:39:37;23.74;;;12.14;;
70205;SDS011;57593;55.896;37.396;2022-11-27T02:40:32;19.88;;;10.08;;
70205;SDS011;57593;55.896;37.396;2022-11-27T02:41:11;20.22;;;11.86;;
70205;SDS011;57593;55.896;37.396;2022-11-27T02:41:48;19.74;;;10.70;;
70205;SDS011;57593;55.896;37.396;2022-11-27T02:42:24;21.65;;;11.45;;
70205;SDS011;57593;55.896;37.396;2022-11-27T02:42:59;23.60;;;12.76;;
70205;SDS011;57593;55.896;37.396;2022-11-27T02:43:36;20.72;;;11.32;;
70205;SDS011;57593;55.896;37.396;2022-11-27T02:44:10;23.14;;;12.24;;
70205;SDS011;57593;55.896;37.396;2022-11-27T02:44:43;21.40;;;12.42;;
70205;SDS011;57593;55.896;37.396;2022-11-27T02:45:39;22.65;;;11.60;;
70205;SDS011;57593;55.896;37.396;2022-11-27T02:46:13;18.90;;;10.66;;
70205;SDS011;57593;55.896;37.396;2022-11-27T02:46:46;21.00;;;11.80;;
70205;SDS011;57593;55.896;37.396;2022-11-27T02:47:18;24.62;;;12.56;;
70205;SDS011;57593;55.896;37.396;2022-11-27T02:47:50;22.16;;;11.88;;
70205;SDS011;57593;55.896;37.396;2022-11-27T02:48:23;23.76;;;12.30;;
70205;SDS011;57593;55.896;37.396;2022-11-27T02:49:05;20.80;;;11.78;;
70205;SDS011;57593;55.896;37.396;2022-11-27T02:49:41;21.44;;;10.68;;
70205;SDS011;57593;55.896;37.396;2022-11-27T02:50:20;20.76;;;11.34;;
70205;SDS011;57593;55.896;37.396;2022-11-27T02:51:26;20.92;;;11.50;;
70205;SDS011;57593;55.896;37.396;2022-11-27T02:52:00;23.14;;;11.32;;
70205;SDS011;57593;55.896;37.396;2022-11-27T02:52:33;20.74;;;11.64;;
70205;SDS011;57593;55.896;37.396;2022-11-27T02:53:20;22.30;;;11.92;;
70205;SDS011;57593;55.896;37.396;2022-11-27T02:53:56;21.92;;;11.42;;
70205;SDS011;57593;55.896;37.396;2022-11-27T02:54:31;20.90;;;12.12;;
70205;SDS011;57593;55.896;37.396;2022-11-27T02:55:04;24.38;;;12.22;;
70205;SDS011;57593;55.896;37.396;2022-11-27T02:55:38;22.62;;;12.28;;
70205;SDS011;57593;55.896;37.396;2022-11-27T02:56:12;23.26;;;11.64;;
70205;SDS011;57593;55.896;37.396;2022-11-27T02:56:46;21.20;;;12.72;;
70205;SDS011;57593;55.896;37.396;2022-11-27T02:57:20;23.68;;;12.46;;
70205;SDS011;57593;55.896;37.396;2022-11-27T02:57:54;21.60;;;12.72;;
70205;SDS011;57593;55.896;37.396;2022-11-27T02:58:27;19.14;;;10.90;;
70205;SDS011;57593;55.896;37.396;2022-11-27T02:59:00;23.42;;;11.76;;
70205;SDS011;57593;55.896;37.396;2022-11-27T02:59:35;22.66;;;12.82;;
70205;SDS011;57593;55.896;37.396;2022-11-27T03:00:07;20.44;;;12.02;;
70205;SDS011;57593;55.896;37.396;2022-11-27T03:00:39;20.78;;;11.76;;
70205;SDS011;57593;55.896;37.396;2022-11-27T03:01:12;21.82;;;12.14;;
70205;SDS011;57593;55.896;37.396;2022-11-27T03:01:46;20.64;;;11.68;;
70205;SDS011;57593;55.896;37.396;2022-11-27T03:02:28;22.50;;;11.90;;
70205;SDS011;57593;55.896;37.396;2022-11-27T03:03:03;21.86;;;12.10;;
70205;SDS011;57593;55.896;37.396;2022-11-27T03:03:37;21.66;;;12.18;;
70205;SDS011;57593;55.896;37.396;2022-11-27T03:04:14;21.56;;;11.70;;
70205;SDS011;57593;55.896;37.396;2022-11-27T03:04:51;22.60;;;11.52;;
70205;SDS011;57593;55.896;37.396;2022-11-27T03:05:26;21.46;;;11.62;;
70205;SDS011;57593;55.896;37.396;2022-11-27T03:06:02;18.94;;;10.92;;
70205;SDS011;57593;55.896;37.396;2022-11-27T03:06:41;18.84;;;11.28;;
70205;SDS011;57593;55.896;37.396;2022-11-27T03:07:19;22.13;;;12.30;;
70205;SDS011;57593;55.896;37.396;2022-11-27T03:08:06;21.96;;;12.20;;
70205;SDS011;57593;55.896;37.396;2022-11-27T03:08:41;21.30;;;11.70;;
70205;SDS011;57593;55.896;37.396;2022-11-27T03:09:32;19.30;;;11.34;;
70205;SDS011;57593;55.896;37.396;2022-11-27T03:10:06;20.42;;;11.32;;
70205;SDS011;57593;55.896;37.396;2022-11-27T03:11:30;19.34;;;11.24;;
70205;SDS011;57593;55.896;37.396;2022-11-27T03:12:04;17.00;;;10.36;;
70205;SDS011;57593;55.896;37.396;2022-11-27T03:12:38;20.04;;;11.66;;
70205;SDS011;57593;55.896;37.396;2022-11-27T03:13:08;20.85;;;11.35;;
70205;SDS011;57593;55.896;37.396;2022-11-27T03:13:43;19.18;;;10.72;;
70205;SDS011;57593;55.896;37.396;2022-11-27T03:14:17;18.90;;;11.04;;
70205;SDS011;57593;55.896;37.396;2022-11-27T03:14:53;20.46;;;10.90;;
70205;SDS011;57593;55.896;37.396;2022-11-27T03:15:24;21.67;;;11.52;;
70205;SDS011;57593;55.896;37.396;2022-11-27T03:18:18;18.30;;;10.18;;
70205;SDS011;57593;55.896;37.396;2022-11-27T03:19:47;17.38;;;10.42;;
70205;SDS011;57593;55.896;37.396;2022-11-27T03:20:24;19.56;;;11.48;;
70205;SDS011;57593;55.896;37.396;2022-11-27T03:21:00;19.18;;;10.52;;
70205;SDS011;57593;55.896;37.396;2022-11-27T03:21:38;19.27;;;11.02;;
70205;SDS011;57593;55.896;37.396;2022-11-27T03:22:11;19.86;;;11.04;;
70205;SDS011;57593;55.896;37.396;2022-11-27T03:22:42;19.30;;;11.48;;
70205;SDS011;57593;55.896;37.396;2022-11-27T03:23:13;17.00;;;10.10;;
70205;SDS011;57593;55.896;37.396;2022-11-27T03:23:44;18.00;;;10.15;;
70205;SDS011;57593;55.896;37.396;2022-11-27T03:24:14;19.83;;;10.75;;
70205;SDS011;57593;55.896;37.396;2022-11-27T03:24:45;17.14;;;10.30;;
70205;SDS011;57593;55.896;37.396;2022-11-27T03:25:19;18.30;;;11.08;;
70205;SDS011;57593;55.896;37.396;2022-11-27T03:25:50;16.36;;;10.30;;
70205;SDS011;57593;55.896;37.396;2022-11-27T03:26:20;18.60;;;10.30;;
70205;SDS011;57593;55.896;37.396;2022-11-27T03:26:51;19.13;;;10.00;;
70205;SDS011;57593;55.896;37.396;2022-11-27T03:27:24;20.55;;;11.25;;
70205;SDS011;57593;55.896;37.396;2022-11-27T03:28:04;18.74;;;10.46;;
70205;SDS011;57593;55.896;37.396;2022-11-27T03:28:39;18.20;;;10.12;;
70205;SDS011;57593;55.896;37.396;2022-11-27T03:29:15;17.10;;;9.88;;
70205;SDS011;57593;55.896;37.396;2022-11-27T03:29:53;15.44;;;9.48;;
70205;SDS011;57593;55.896;37.396;2022-11-27T03:30:27;16.96;;;10.76;;
70205;SDS011;57593;55.896;37.396;2022-11-27T03:30:57;17.05;;;9.70;;
70205;SDS011;57593;55.896;37.396;2022-11-27T03:31:28;18.42;;;10.25;;
70205;SDS011;57593;55.896;37.396;2022-11-27T03:32:00;15.40;;;9.30;;
70205;SDS011;57593;55.896;37.396;2022-11-27T03:32:32;15.50;;;9.98;;
70205;SDS011;57593;55.896;37.396;2022-11-27T03:33:03;15.07;;;9.98;;
70205;SDS011;57593;55.896;37.396;2022-11-27T03:33:33;16.75;;;10.70;;
70205;SDS011;57593;55.896;37.396;2022-11-27T03:34:04;15.18;;;9.55;;
70205;SDS011;57593;55.896;37.396;2022-11-27T03:34:35;15.63;;;10.07;;